createdAt,value
2018-02-19T00:00:12.599Z,98.10
2018-02-19T00:02:40.116Z,98.10
2018-02-19T00:05:07.672Z,98.00
2018-02-19T00:07:35.192Z,98.10
2018-02-19T00:10:02.770Z,98.10
2018-02-19T00:12:30.293Z,98.30
2018-02-19T00:14:57.848Z,98.40
2018-02-19T00:17:25.372Z,98.40
2018-02-19T00:19:53.696Z,98.40
2018-02-19T00:22:21.216Z,98.40
2018-02-19T00:24:48.809Z,98.40
2018-02-19T00:27:17.105Z,98.50
2018-02-19T00:29:44.620Z,98.50
2018-02-19T00:32:12.188Z,98.40
2018-02-19T00:34:39.709Z,98.50
2018-02-19T00:37:08.032Z,98.40
2018-02-19T00:39:35.591Z,98.40
2018-02-19T00:42:03.118Z,98.30
2018-02-19T00:44:30.670Z,98.40
2018-02-19T00:46:58.184Z,98.40
2018-02-19T00:49:25.744Z,98.10
2018-02-19T00:51:53.268Z,98.20
2018-02-19T00:54:20.816Z,98.20
2018-02-19T00:56:49.103Z,98.30
2018-02-19T00:59:17.422Z,98.50
2018-02-19T01:01:44.949Z,98.50
2018-02-19T01:04:13.280Z,99.20
2018-02-19T01:06:40.815Z,99.20
2018-02-19T01:09:09.144Z,99.90
2018-02-19T01:11:36.671Z,99.80
2018-02-19T01:14:04.228Z,99.50
2018-02-19T01:16:31.764Z,99.50
2018-02-19T01:18:59.335Z,99.40
2018-02-19T01:21:26.866Z,99.50
2018-02-19T01:23:54.418Z,99.30
2018-02-19T01:26:21.936Z,99.40
2018-02-19T01:28:49.487Z,99.10
2018-02-19T01:31:17.779Z,99.80
2018-02-19T01:33:46.091Z,99.80
2018-02-19T01:36:13.607Z,99.80
2018-02-19T01:38:41.163Z,99.90
2018-02-19T01:41:08.688Z,99.90
2018-02-19T01:43:36.244Z,99.90
2018-02-19T01:46:03.760Z,99.90
2018-02-19T01:48:31.304Z,99.90
2018-02-19T01:50:58.828Z,99.90
2018-02-19T01:53:26.380Z,99.90
2018-02-19T01:55:53.895Z,99.90
2018-02-19T01:58:21.440Z,99.90
2018-02-19T02:00:48.969Z,99.90
2018-02-19T02:03:16.536Z,99.90
2018-02-19T02:08:35.547Z,99.90
2018-02-19T02:11:03.860Z,99.90
2018-02-19T02:13:31.380Z,99.90
2018-02-19T02:15:58.931Z,99.90
2018-02-19T02:18:27.216Z,99.90
2018-02-19T02:20:54.763Z,99.90
2018-02-19T02:23:22.289Z,99.90
2018-02-19T02:25:49.856Z,99.90
2018-02-19T02:28:17.380Z,99.90
2018-02-19T02:30:44.899Z,99.90
2018-02-19T02:33:12.447Z,99.90
2018-02-19T02:35:39.963Z,99.90
2018-02-19T02:38:08.252Z,99.90
2018-02-19T02:40:36.575Z,99.90
2018-02-19T02:43:04.090Z,99.90
2018-02-19T02:45:32.425Z,99.90
2018-02-19T02:47:59.944Z,99.90
2018-02-19T02:50:27.499Z,99.90
2018-02-19T02:52:55.016Z,99.90
2018-02-19T02:55:23.336Z,99.90
2018-02-19T02:57:50.856Z,99.90
2018-02-19T03:00:18.402Z,99.90
2018-02-19T03:02:45.916Z,99.90
2018-02-19T03:05:13.478Z,99.90
2018-02-19T03:07:41.824Z,99.90
2018-02-19T03:10:09.340Z,99.90
2018-02-19T03:12:36.856Z,99.90
2018-02-19T03:15:04.413Z,99.90
2018-02-19T03:17:32.704Z,99.90
2018-02-19T03:20:01.021Z,99.90
2018-02-19T03:22:28.539Z,99.90
2018-02-19T03:24:56.095Z,99.90
2018-02-19T03:27:23.611Z,99.90
2018-02-19T03:29:51.919Z,99.90
2018-02-19T03:32:19.442Z,99.90
2018-02-19T03:34:47.001Z,99.90
2018-02-19T03:37:14.552Z,99.90
2018-02-19T03:39:42.100Z,99.70
2018-02-19T03:42:09.616Z,99.70
2018-02-19T03:44:37.164Z,99.80
2018-02-19T03:47:04.681Z,99.60
2018-02-19T03:49:32.228Z,99.50
2018-02-19T03:52:00.512Z,99.60
2018-02-19T03:54:28.057Z,99.60
2018-02-19T03:56:55.579Z,99.60
2018-02-19T03:59:23.128Z,99.60
2018-02-19T04:01:50.648Z,99.40
2018-02-19T04:04:18.972Z,99.20
2018-02-19T04:06:46.481Z,99.20
2018-02-19T04:09:14.041Z,99.20
2018-02-19T04:11:41.589Z,99.50
2018-02-19T04:14:09.111Z,99.40
2018-02-19T04:16:36.651Z,99.20
2018-02-19T04:19:04.168Z,99.20
2018-02-19T04:21:32.811Z,99.40
2018-02-19T04:24:00.327Z,99.10
2018-02-19T04:26:27.843Z,99.30
2018-02-19T04:28:55.396Z,99.50
2018-02-19T04:31:22.919Z,99.40
2018-02-19T04:33:50.471Z,99.40
2018-02-19T04:36:17.990Z,99.10
2018-02-19T04:38:46.309Z,99.20
2018-02-19T04:41:13.825Z,99.20
2018-02-19T04:43:41.346Z,99.00
2018-02-19T04:46:11.761Z,98.90
2018-02-19T04:48:39.276Z,99.00
2018-02-19T04:51:06.821Z,98.90
2018-02-19T04:53:35.099Z,99.20
2018-02-19T04:56:03.412Z,99.40
2018-02-19T04:58:30.930Z,99.40
2018-02-19T05:00:58.477Z,99.60
2018-02-19T05:03:26.034Z,99.70
2018-02-19T05:05:53.551Z,99.90
2018-02-19T05:08:21.111Z,99.90
2018-02-19T05:10:48.659Z,99.90
2018-02-19T05:13:16.247Z,99.90
2018-02-19T05:15:43.766Z,99.80
2018-02-19T05:18:12.051Z,99.90
2018-02-19T05:20:39.635Z,99.90
2018-02-19T05:23:07.922Z,99.90
2018-02-19T05:25:35.468Z,99.90
2018-02-19T05:28:02.991Z,99.90
2018-02-19T05:30:30.562Z,99.90
2018-02-19T05:32:58.108Z,99.90
2018-02-19T05:35:26.396Z,99.90
2018-02-19T05:37:54.738Z,99.90
2018-02-19T05:40:22.256Z,99.90
2018-02-19T05:42:50.605Z,99.90
2018-02-19T05:45:18.145Z,99.90
2018-02-19T05:47:45.679Z,99.90
2018-02-19T05:50:13.251Z,99.90
2018-02-19T05:52:40.763Z,99.80
2018-02-19T05:55:08.316Z,99.50
2018-02-19T05:57:36.639Z,99.20
2018-02-19T06:00:04.163Z,99.20
2018-02-19T06:02:31.718Z,99.20
2018-02-19T06:04:59.242Z,99.50
2018-02-19T06:07:26.791Z,99.70
2018-02-19T06:09:54.312Z,99.70
2018-02-19T06:12:32.258Z,99.80
2018-02-19T06:14:59.776Z,99.40
2018-02-19T06:17:27.340Z,99.20
2018-02-19T06:19:54.868Z,99.10
2018-02-19T06:22:22.892Z,99.00
2018-02-19T06:24:50.440Z,98.80
2018-02-19T06:27:18.007Z,98.80
2018-02-19T06:29:45.564Z,99.10
2018-02-19T06:32:13.092Z,99.20
2018-02-19T06:34:40.658Z,99.10
2018-02-19T06:37:08.179Z,98.90
2018-02-19T06:39:35.732Z,99.10
2018-02-19T06:42:03.256Z,99.10
2018-02-19T06:44:30.792Z,99.10
2018-02-19T06:46:58.312Z,99.20
2018-02-19T06:49:25.863Z,99.40
2018-02-19T06:51:54.148Z,99.90
2018-02-19T06:54:21.742Z,99.90
2018-02-19T06:56:50.028Z,99.90
2018-02-19T06:59:18.365Z,99.90
2018-02-19T07:01:45.888Z,99.90
2018-02-19T07:04:14.215Z,99.50
2018-02-19T07:06:41.735Z,99.50
2018-02-19T07:09:09.275Z,99.00
2018-02-19T07:11:36.823Z,99.00
2018-02-19T07:14:04.348Z,98.10
2018-02-19T07:16:31.900Z,97.70
2018-02-19T07:18:59.415Z,97.60
2018-02-19T07:21:27.739Z,97.90
2018-02-19T07:23:55.255Z,97.80
2018-02-19T07:26:22.797Z,97.20
2018-02-19T07:28:50.345Z,96.90
2018-02-19T07:31:17.872Z,97.00
2018-02-19T07:33:45.418Z,96.90
2018-02-19T07:36:12.932Z,96.30
2018-02-19T07:38:41.240Z,95.50
2018-02-19T07:41:08.760Z,95.50
2018-02-19T07:43:36.299Z,94.90
2018-02-19T07:46:03.808Z,94.60
2018-02-19T07:48:31.356Z,94.70
2018-02-19T07:50:58.875Z,94.40
2018-02-19T07:53:27.184Z,93.80
2018-02-19T07:55:54.707Z,93.80
2018-02-19T07:58:22.260Z,93.40
2018-02-19T08:00:49.779Z,92.90
2018-02-19T08:03:18.084Z,92.60
2018-02-19T08:05:46.359Z,91.60
2018-02-19T08:08:13.902Z,91.60
2018-02-19T08:10:41.452Z,91.90
2018-02-19T08:13:08.970Z,92.10
2018-02-19T08:15:36.516Z,91.20
2018-02-19T08:18:04.043Z,90.30
2018-02-19T08:20:31.593Z,90.70
2018-02-19T08:22:59.101Z,90.20
2018-02-19T08:25:26.648Z,90.20
2018-02-19T08:27:54.924Z,84.60
2018-02-19T08:30:23.249Z,84.50
2018-02-19T08:32:50.772Z,84.40
2018-02-19T08:35:18.324Z,85.50
2018-02-19T08:37:45.867Z,85.50
2018-02-19T08:40:13.432Z,84.80
2018-02-19T08:42:40.953Z,83.80
2018-02-19T08:45:08.459Z,83.90
2018-02-19T08:47:36.772Z,79.90
2018-02-19T08:50:04.284Z,80.00
2018-02-19T08:52:31.836Z,80.10
2018-02-19T08:54:59.347Z,78.90
2018-02-19T08:57:27.667Z,72.10
2018-02-19T08:59:55.184Z,72.80
2018-02-19T09:02:22.731Z,70.40
2018-02-19T09:04:50.246Z,70.00
2018-02-19T09:07:17.796Z,69.60
2018-02-19T09:09:45.308Z,68.10
2018-02-19T09:12:12.897Z,68.40
2018-02-19T09:14:40.412Z,69.00
2018-02-19T09:17:08.016Z,70.40
2018-02-19T09:19:36.333Z,72.40
2018-02-19T09:22:03.844Z,72.40
2018-02-19T09:24:31.418Z,71.20
2018-02-19T09:26:58.927Z,68.30
2018-02-19T09:29:27.244Z,65.90
2018-02-19T09:31:54.764Z,65.90
2018-02-19T09:34:22.299Z,65.60
2018-02-19T09:36:49.820Z,66.10
2018-02-19T09:39:18.132Z,66.80
2018-02-19T09:41:45.691Z,66.10
2018-02-19T09:44:13.220Z,64.90
2018-02-19T09:46:40.737Z,63.90
2018-02-19T09:49:09.061Z,62.70
2018-02-19T09:51:36.568Z,62.60
2018-02-19T09:54:04.137Z,63.40
2018-02-19T09:56:31.675Z,61.10
2018-02-19T09:58:59.204Z,61.00
2018-02-19T10:01:26.752Z,61.40
2018-02-19T10:03:54.263Z,63.40
2018-02-19T10:06:22.579Z,63.60
2018-02-19T10:08:50.108Z,63.50
2018-02-19T10:11:17.663Z,64.80
2018-02-19T10:13:45.180Z,65.20
2018-02-19T10:16:12.757Z,63.80
2018-02-19T10:18:40.297Z,64.40
2018-02-19T10:21:07.844Z,64.50
2018-02-19T10:23:35.365Z,63.60
2018-02-19T10:26:02.918Z,62.50
2018-02-19T10:28:30.463Z,60.20
2018-02-19T10:30:58.000Z,59.50
2018-02-19T10:33:25.509Z,57.60
2018-02-19T10:35:53.064Z,56.90
2018-02-19T10:38:20.587Z,55.40
2018-02-19T10:40:48.912Z,54.40
2018-02-19T10:43:16.438Z,54.30
2018-02-19T10:45:44.768Z,55.20
2018-02-19T10:48:12.300Z,55.20
2018-02-19T10:50:40.611Z,55.70
2018-02-19T10:53:08.128Z,55.70
2018-02-19T10:55:35.689Z,55.10
2018-02-19T10:58:03.208Z,51.90
2018-02-19T11:00:36.508Z,51.30
2018-02-19T11:03:04.026Z,50.80
2018-02-19T11:05:31.594Z,49.50
2018-02-19T11:07:59.127Z,48.40
2018-02-19T11:10:26.694Z,48.10
2018-02-19T11:12:54.215Z,46.50
2018-02-19T11:15:21.772Z,45.60
2018-02-19T11:17:49.296Z,49.20
2018-02-19T11:20:16.880Z,50.60
2018-02-19T11:22:44.418Z,50.70
2018-02-19T11:25:11.984Z,52.40
2018-02-19T11:27:39.516Z,53.70
2018-02-19T11:30:07.824Z,55.20
2018-02-19T11:32:35.344Z,55.20
2018-02-19T11:35:02.907Z,55.50
2018-02-19T11:37:30.465Z,54.40
2018-02-19T11:39:58.012Z,54.10
2018-02-19T11:42:25.524Z,53.50
2018-02-19T11:44:53.081Z,54.90
2018-02-19T11:47:20.637Z,54.50
2018-02-19T11:49:48.219Z,55.50
2018-02-19T11:52:15.756Z,55.90
2018-02-19T11:54:44.092Z,56.50
2018-02-19T11:57:11.639Z,56.50
2018-02-19T11:59:39.190Z,56.00
2018-02-19T12:02:07.476Z,57.60
2018-02-19T12:04:35.064Z,57.50
2018-02-19T12:07:03.349Z,57.70
2018-02-19T12:09:31.691Z,57.30
2018-02-19T12:11:59.225Z,57.40
2018-02-19T12:14:26.831Z,56.70
2018-02-19T12:16:55.140Z,57.20
2018-02-19T12:19:22.712Z,56.30
2018-02-19T12:21:50.256Z,57.20
2018-02-19T12:24:18.127Z,57.60
2018-02-19T12:26:45.669Z,58.20
2018-02-19T12:29:13.976Z,58.30
2018-02-19T12:31:41.533Z,58.40
2018-02-19T12:34:09.085Z,58.50
2018-02-19T12:36:36.609Z,60.00
2018-02-19T12:39:04.164Z,60.70
2018-02-19T12:41:31.680Z,59.60
2018-02-19T12:43:59.238Z,60.20
2018-02-19T12:46:26.760Z,60.20
2018-02-19T12:48:55.118Z,60.70
2018-02-19T12:51:22.635Z,60.70
2018-02-19T12:53:50.954Z,60.00
2018-02-19T12:56:18.477Z,60.00
2018-02-19T12:58:46.036Z,60.40
2018-02-19T13:01:13.552Z,61.00
2018-02-19T13:03:41.107Z,61.50
2018-02-19T13:06:09.401Z,61.20
2018-02-19T13:08:36.967Z,61.20
2018-02-19T13:11:05.268Z,60.00
2018-02-19T13:13:33.584Z,58.60
2018-02-19T13:16:01.109Z,58.60
2018-02-19T13:18:28.669Z,57.60
2018-02-19T13:20:56.192Z,58.00
2018-02-19T13:23:23.795Z,57.70
2018-02-19T13:25:51.365Z,59.10
2018-02-19T13:28:18.916Z,60.10
2018-02-19T13:30:46.460Z,60.10
2018-02-19T13:33:14.784Z,60.50
2018-02-19T13:35:42.304Z,60.50
2018-02-19T13:38:09.823Z,61.20
2018-02-19T13:40:37.370Z,60.50
2018-02-19T13:43:05.646Z,59.10
2018-02-19T13:45:33.964Z,58.70
2018-02-19T13:48:01.481Z,58.70
2018-02-19T13:50:29.047Z,57.40
2018-02-19T13:52:56.580Z,55.70
2018-02-19T13:55:24.141Z,55.60
2018-02-19T13:57:51.668Z,55.40
2018-02-19T14:00:19.216Z,55.50
2018-02-19T14:02:46.756Z,56.50
2018-02-19T14:05:14.325Z,55.10
2018-02-19T14:07:42.620Z,55.90
2018-02-19T14:10:10.135Z,55.90
2018-02-19T14:12:37.688Z,56.20
2018-02-19T14:15:05.212Z,56.20
2018-02-19T14:17:33.542Z,57.70
2018-02-19T14:20:01.052Z,57.00
2018-02-19T14:22:28.616Z,56.10
2018-02-19T14:24:56.165Z,56.80
2018-02-19T14:27:23.725Z,56.60
2018-02-19T14:29:51.276Z,57.10
2018-02-19T14:32:18.797Z,57.50
2018-02-19T14:34:46.359Z,56.90
2018-02-19T14:37:13.892Z,56.90
2018-02-19T14:39:42.199Z,56.50
2018-02-19T14:42:09.724Z,56.50
2018-02-19T14:44:37.280Z,57.10
2018-02-19T14:47:04.809Z,58.40
2018-02-19T14:49:32.358Z,58.00
2018-02-19T14:51:59.892Z,58.20
2018-02-19T14:54:27.451Z,58.30
2018-02-19T14:56:54.969Z,58.10
2018-02-19T14:59:23.387Z,58.50
2018-02-19T15:01:50.908Z,58.60
2018-02-19T15:04:18.458Z,58.30
2018-02-19T15:06:45.982Z,58.80
2018-02-19T15:09:14.304Z,59.50
2018-02-19T15:11:41.832Z,59.40
2018-02-19T15:14:09.400Z,59.10
2018-02-19T15:16:37.738Z,59.20
2018-02-19T15:19:05.268Z,59.50
2018-02-19T15:21:32.820Z,59.80
2018-02-19T15:24:00.367Z,59.30
2018-02-19T15:26:27.939Z,59.90
2018-02-19T15:28:55.517Z,59.40
2018-02-19T15:31:24.099Z,59.90
2018-02-19T15:33:51.655Z,60.40
2018-02-19T15:36:19.175Z,62.20
2018-02-19T15:38:46.723Z,61.00
2018-02-19T15:41:14.252Z,60.80
2018-02-19T15:43:41.831Z,61.60
2018-02-19T15:46:09.340Z,61.00
2018-02-19T15:48:36.905Z,61.60
2018-02-19T15:51:04.476Z,62.30
2018-02-19T15:53:32.031Z,62.70
2018-02-19T15:55:59.553Z,62.50
2018-02-19T15:58:27.108Z,63.10
2018-02-19T16:00:54.629Z,62.30
2018-02-19T16:03:22.177Z,62.70
2018-02-19T16:05:49.705Z,63.30
2018-02-19T16:08:17.257Z,63.90
2018-02-19T16:10:45.544Z,63.80
2018-02-19T16:13:13.903Z,64.10
2018-02-19T16:15:41.422Z,64.10
2018-02-19T16:18:09.032Z,64.20
2018-02-19T16:20:36.557Z,64.00
2018-02-19T16:23:04.867Z,65.80
2018-02-19T16:25:32.536Z,65.80
2018-02-19T16:28:00.064Z,66.50
2018-02-19T16:30:27.604Z,68.00
2018-02-19T16:32:55.119Z,69.20
2018-02-19T16:35:22.680Z,70.20
2018-02-19T16:37:50.222Z,70.20
2018-02-19T16:40:17.776Z,70.30
2018-02-19T16:42:45.296Z,71.00
2018-02-19T16:45:12.904Z,71.30
2018-02-19T16:47:40.392Z,71.40
2018-02-19T16:50:07.948Z,71.70
2018-02-19T16:52:36.231Z,71.90
2018-02-19T16:55:03.782Z,71.90
2018-02-19T16:57:31.308Z,72.10
2018-02-19T16:59:58.861Z,72.10
2018-02-19T17:02:26.388Z,72.80
2018-02-19T17:04:53.936Z,73.80
2018-02-19T17:07:21.447Z,73.60
2018-02-19T17:09:49.792Z,74.90
2018-02-19T17:12:17.312Z,74.90
2018-02-19T17:14:44.873Z,74.60
2018-02-19T17:17:12.399Z,73.70
2018-02-19T17:19:39.962Z,73.70
2018-02-19T17:22:07.480Z,73.60
2018-02-19T17:24:35.050Z,74.10
2018-02-19T17:27:02.610Z,74.00
2018-02-19T17:29:30.119Z,73.80
2018-02-19T17:31:58.439Z,73.70
2018-02-19T17:34:25.967Z,74.40
2018-02-19T17:36:53.524Z,73.70
2018-02-19T17:39:21.088Z,74.10
2018-02-19T17:41:48.622Z,74.30
2018-02-19T17:44:16.197Z,74.30
2018-02-19T17:46:43.764Z,74.40
2018-02-19T17:49:11.279Z,74.80
2018-02-19T17:51:38.833Z,75.10
2018-02-19T17:54:06.384Z,75.40
2018-02-19T17:56:33.928Z,75.20
2018-02-19T17:59:01.449Z,75.70
2018-02-19T18:01:29.015Z,76.20
2018-02-19T18:03:56.554Z,75.90
2018-02-19T18:06:24.871Z,76.20
2018-02-19T18:08:52.430Z,76.10
2018-02-19T18:11:19.948Z,76.10
2018-02-19T18:13:49.432Z,76.10
2018-02-19T18:16:16.992Z,76.20
2018-02-19T18:18:44.526Z,75.90
2018-02-19T18:21:12.077Z,75.70
2018-02-19T18:23:39.596Z,75.90
2018-02-19T18:26:07.923Z,76.60
2018-02-19T18:28:35.479Z,76.60
2018-02-19T18:31:03.028Z,76.80
2018-02-19T18:33:30.546Z,77.30
2018-02-19T18:35:58.092Z,78.00
2018-02-19T18:38:25.620Z,78.20
2018-02-19T18:40:53.178Z,78.40
2018-02-19T18:43:20.717Z,78.60
2018-02-19T18:45:48.276Z,78.80
2018-02-19T18:48:16.589Z,79.50
2018-02-19T18:50:44.152Z,79.50
2018-02-19T18:53:11.672Z,80.00
2018-02-19T18:55:39.276Z,80.00
2018-02-19T18:58:07.573Z,79.90
2018-02-19T19:00:35.127Z,79.80
2018-02-19T19:03:02.644Z,79.40
2018-02-19T19:05:30.194Z,79.50
2018-02-19T19:08:09.653Z,79.30
2018-02-19T19:10:43.013Z,79.30
2018-02-19T19:13:10.574Z,79.40
2018-02-19T19:15:38.108Z,79.50
2018-02-19T19:18:05.664Z,79.60
2018-02-19T19:20:33.970Z,80.30
2018-02-19T19:23:01.568Z,80.30
2018-02-19T19:25:29.120Z,80.50
2018-02-19T19:27:56.636Z,80.80
2018-02-19T19:30:24.238Z,80.80
2018-02-19T19:32:52.536Z,80.40
2018-02-19T19:35:20.080Z,80.40
2018-02-19T19:37:47.601Z,81.00
2018-02-19T19:40:15.134Z,81.30
2018-02-19T19:42:43.467Z,81.40
2018-02-19T19:45:11.021Z,81.30
2018-02-19T19:47:38.543Z,81.20
2018-02-19T19:50:06.099Z,81.30
2018-02-19T19:52:33.637Z,81.80
2018-02-19T19:55:01.961Z,82.40
2018-02-19T19:57:29.488Z,82.40
2018-02-19T19:59:57.803Z,82.30
2018-02-19T20:02:25.337Z,82.30
2018-02-19T20:04:52.888Z,82.30
2018-02-19T20:07:20.448Z,82.40
2018-02-19T20:09:47.963Z,82.60
2018-02-19T20:12:16.288Z,82.90
2018-02-19T20:14:43.961Z,82.90
2018-02-19T20:17:11.516Z,83.40
2018-02-19T20:19:39.041Z,84.00
2018-02-19T20:22:06.618Z,84.10
2018-02-19T20:24:34.136Z,84.50
2018-02-19T20:27:01.656Z,84.70
2018-02-19T20:29:29.223Z,85.10
2018-02-19T20:31:56.776Z,85.20
2018-02-19T20:34:24.331Z,85.30
2018-02-19T20:36:51.848Z,85.80
2018-02-19T20:39:19.387Z,86.40
2018-02-19T20:41:46.910Z,86.80
2018-02-19T20:44:14.462Z,87.10
2018-02-19T20:46:42.005Z,87.50
2018-02-19T20:49:09.556Z,87.70
2018-02-19T20:51:37.085Z,87.70
2018-02-19T20:54:04.639Z,87.40
2018-02-19T20:56:32.163Z,86.80
2018-02-19T20:58:59.705Z,87.00
2018-02-19T21:01:27.224Z,87.10
2018-02-19T21:03:54.768Z,86.70
2018-02-19T21:06:23.045Z,86.80
2018-02-19T21:08:51.377Z,87.10
2018-02-19T21:11:18.937Z,87.30
2018-02-19T21:13:46.447Z,87.40
2018-02-19T21:16:14.012Z,87.70
2018-02-19T21:18:41.541Z,87.50
2018-02-19T21:21:09.116Z,87.30
2018-02-19T21:23:37.396Z,88.10
2018-02-19T21:26:05.708Z,88.60
2018-02-19T21:28:33.262Z,88.60
2018-02-19T21:31:01.537Z,88.50
2018-02-19T21:33:29.093Z,88.50
2018-02-19T21:35:56.614Z,88.80
2018-02-19T21:38:24.211Z,88.80
2018-02-19T21:40:51.731Z,89.10
2018-02-19T21:43:19.280Z,89.40
2018-02-19T21:45:46.800Z,89.50
2018-02-19T21:48:14.347Z,89.80
2018-02-19T21:50:41.877Z,89.80
2018-02-19T21:53:09.436Z,89.80
2018-02-19T21:55:36.966Z,90.00
2018-02-19T21:58:05.280Z,90.20
2018-02-19T22:00:32.807Z,90.20
2018-02-19T22:03:00.358Z,90.50
2018-02-19T22:05:27.872Z,90.80
2018-02-19T22:07:55.425Z,91.00
2018-02-19T22:10:23.003Z,91.30
2018-02-19T22:12:50.516Z,91.50
2018-02-19T22:15:18.073Z,91.60
2018-02-19T22:17:45.607Z,91.60
2018-02-19T22:20:13.169Z,91.60
2018-02-19T22:22:40.679Z,91.80
2018-02-19T22:25:09.008Z,91.90
2018-02-19T22:27:36.526Z,91.90
2018-02-19T22:30:04.072Z,91.90
2018-02-19T22:32:31.625Z,92.10
2018-02-19T22:34:59.179Z,92.00
2018-02-19T22:37:26.737Z,92.20
2018-02-19T22:39:55.015Z,92.60
2018-02-19T22:42:22.572Z,92.60
2018-02-19T22:44:50.096Z,93.00
2018-02-19T22:47:17.653Z,93.10
2018-02-19T22:49:45.203Z,93.50
2018-02-19T22:52:12.728Z,93.90
2018-02-19T22:54:40.276Z,94.10
2018-02-19T22:57:07.791Z,94.20
2018-02-19T22:59:35.340Z,94.50
2018-02-19T23:02:03.432Z,94.70
2018-02-19T23:04:30.988Z,95.00
2018-02-19T23:06:58.505Z,95.10
2018-02-19T23:09:26.060Z,95.20
2018-02-19T23:11:53.579Z,95.50
2018-02-19T23:14:21.896Z,96.10
2018-02-19T23:16:49.416Z,96.10
2018-02-19T23:19:17.001Z,96.10
2018-02-19T23:21:45.299Z,96.50
2018-02-19T23:24:12.886Z,96.50
2018-02-19T23:26:40.404Z,96.60
2018-02-19T23:29:07.928Z,96.80
2018-02-19T23:31:35.485Z,96.80
2018-02-19T23:34:03.806Z,97.00
2018-02-19T23:36:31.332Z,97.00
2018-02-19T23:38:59.684Z,96.70
2018-02-19T23:41:27.211Z,96.90
2018-02-19T23:43:55.536Z,97.10
2018-02-19T23:46:23.052Z,97.10
2018-02-19T23:48:50.610Z,97.10
2018-02-19T23:51:18.143Z,97.30
2018-02-19T23:53:45.705Z,97.30
2018-02-19T23:56:13.219Z,97.40
2018-02-19T23:58:40.769Z,97.40
